createdAt,value
2023-01-26T00:01:11.550Z,0.62
2023-01-26T00:04:14.235Z,0.45
2023-01-26T00:07:18.207Z,0.37
2023-01-26T00:10:20.841Z,0.85
2023-01-26T00:13:23.493Z,0.72
2023-01-26T00:16:27.210Z,0.41
2023-01-26T00:19:29.794Z,0.76
2023-01-26T00:22:33.879Z,0.73
2023-01-26T00:25:39.837Z,0.45
2023-01-26T00:28:42.490Z,0.42
2023-01-26T00:31:45.176Z,0.84
2023-01-26T00:34:47.842Z,0.37
2023-01-26T00:37:51.774Z,0.51
2023-01-26T00:40:54.374Z,0.79
2023-01-26T00:43:57.037Z,0.99
2023-01-26T00:46:59.878Z,1.04
2023-01-26T00:50:02.488Z,0.84
2023-01-26T00:53:06.435Z,0.74
2023-01-26T00:56:09.519Z,0.73
2023-01-26T00:59:12.554Z,0.49
2023-01-26T01:02:15.184Z,0.18
2023-01-26T01:05:17.867Z,0.37
2023-01-26T01:08:21.796Z,0.86
2023-01-26T01:11:24.419Z,0.63
2023-01-26T01:14:27.062Z,0.92
2023-01-26T01:17:29.645Z,0.92
2023-01-26T01:20:32.242Z,0.25
2023-01-26T01:23:36.528Z,0.40
2023-01-26T01:26:40.302Z,0.59
2023-01-26T01:29:42.900Z,0.33
2023-01-26T01:32:49.575Z,0.77
2023-01-26T01:35:58.770Z,0.89
2023-01-26T01:39:02.732Z,0.43
2023-01-26T01:42:05.525Z,0.09
2023-01-26T01:45:40.286Z,0.76
2023-01-26T01:48:52.261Z,0.78
2023-01-26T01:51:59.054Z,0.08
2023-01-26T01:55:07.431Z,-0.28
2023-01-26T01:58:10.660Z,0.19
2023-01-26T02:01:13.607Z,0.22
2023-01-26T02:04:16.316Z,0.31
2023-01-26T02:07:18.963Z,0.66
2023-01-26T02:10:23.576Z,0.97
2023-01-26T02:13:28.269Z,1.15
2023-01-26T02:16:30.928Z,1.12
2023-01-26T02:19:48.108Z,0.05
2023-01-26T02:23:00.811Z,0.57
2023-01-26T02:26:13.751Z,0.64
2023-01-26T02:29:16.370Z,0.69
2023-01-26T02:32:18.949Z,0.11
2023-01-26T02:35:21.640Z,0.31
2023-01-26T02:38:29.586Z,0.29
2023-01-26T02:42:05.415Z,0.75
2023-01-26T02:45:09.539Z,0.44
2023-01-26T02:48:12.123Z,0.06
2023-01-26T02:51:13.776Z,0.38
2023-01-26T02:54:30.467Z,0.53
2023-01-26T02:57:35.282Z,0.68
2023-01-26T03:00:40.649Z,0.75
2023-01-26T03:03:44.918Z,0.80
2023-01-26T03:06:47.523Z,1.21
2023-01-26T03:09:50.137Z,0.77
2023-01-26T03:12:54.516Z,0.87
2023-01-26T03:16:02.621Z,0.79
2023-01-26T03:19:23.522Z,1.08
2023-01-26T03:22:43.853Z,0.67
2023-01-26T03:26:04.153Z,1.06
2023-01-26T03:29:08.359Z,1.10
2023-01-26T03:32:11.062Z,1.16
2023-01-26T03:35:15.251Z,1.20
2023-01-26T03:38:17.876Z,1.31
2023-01-26T03:41:37.904Z,1.36
2023-01-26T03:44:59.540Z,1.33
2023-01-26T03:48:24.358Z,0.52
2023-01-26T03:51:44.740Z,1.14
2023-01-26T03:55:05.069Z,1.41
2023-01-26T03:58:09.469Z,0.72
2023-01-26T04:01:20.058Z,0.53
2023-01-26T04:04:40.745Z,0.72
2023-01-26T04:08:00.906Z,1.23
2023-01-26T04:11:03.531Z,0.46
2023-01-26T04:14:23.873Z,1.05
2023-01-26T04:17:45.639Z,1.34
2023-01-26T04:21:06.138Z,0.70
2023-01-26T04:24:09.596Z,1.16
2023-01-26T04:27:12.241Z,0.69
2023-01-26T04:30:17.396Z,0.93
2023-01-26T04:33:21.366Z,1.22
2023-01-26T04:36:23.932Z,1.50
2023-01-26T04:39:26.590Z,1.29
2023-01-26T04:42:29.193Z,1.40
2023-01-26T04:45:31.821Z,1.34
2023-01-26T04:48:36.551Z,1.27
2023-01-26T04:51:39.193Z,1.63
2023-01-26T04:54:42.381Z,0.93
2023-01-26T04:57:44.950Z,1.12
2023-01-26T05:00:51.788Z,1.42
2023-01-26T05:03:55.840Z,1.52
2023-01-26T05:06:58.609Z,1.22
2023-01-26T05:10:01.192Z,0.81
2023-01-26T05:13:03.782Z,1.00
2023-01-26T05:16:07.732Z,1.15
2023-01-26T05:19:11.751Z,1.09
2023-01-26T05:22:14.315Z,1.32
2023-01-26T05:25:17.130Z,1.20
2023-01-26T05:28:19.835Z,1.11
2023-01-26T05:31:22.507Z,1.32
2023-01-26T05:34:26.461Z,1.04
2023-01-26T05:37:29.591Z,1.34
2023-01-26T05:40:32.252Z,1.47
2023-01-26T05:43:34.797Z,1.39
2023-01-26T05:46:37.390Z,1.50
2023-01-26T05:49:42.902Z,1.33
2023-01-26T05:52:46.577Z,1.51
2023-01-26T05:55:49.252Z,1.09
2023-01-26T05:58:51.809Z,1.48
2023-01-26T06:01:54.440Z,1.54
2023-01-26T06:04:58.391Z,1.55
2023-01-26T06:08:00.986Z,1.56
2023-01-26T06:11:03.577Z,1.69
2023-01-26T06:14:06.164Z,1.44
2023-01-26T06:17:08.771Z,1.62
2023-01-26T06:20:14.645Z,1.12
2023-01-26T06:23:17.333Z,1.20
2023-01-26T06:26:20.022Z,1.45
2023-01-26T06:29:22.629Z,1.57
2023-01-26T06:32:25.337Z,1.74
2023-01-26T06:35:29.339Z,1.54
2023-01-26T06:38:32.638Z,1.29
2023-01-26T06:41:35.243Z,1.61
2023-01-26T06:44:37.836Z,1.75
2023-01-26T06:47:45.939Z,1.59
2023-01-26T06:50:52.156Z,1.36
2023-01-26T06:53:56.746Z,1.33
2023-01-26T06:56:59.353Z,1.12
2023-01-26T07:00:01.938Z,1.18
2023-01-26T07:03:04.545Z,1.65
2023-01-26T07:06:12.124Z,1.46
2023-01-26T07:09:14.718Z,1.16
2023-01-26T07:12:17.306Z,1.18
2023-01-26T07:15:19.893Z,1.45
2023-01-26T07:18:22.459Z,1.48
2023-01-26T07:21:26.393Z,1.18
2023-01-26T07:24:29.275Z,1.60
2023-01-26T07:27:31.869Z,1.43
2023-01-26T07:30:34.489Z,1.31
2023-01-26T07:33:37.188Z,1.78
2023-01-26T07:36:41.203Z,1.87
2023-01-26T07:39:43.792Z,1.73
2023-01-26T07:42:46.364Z,1.72
2023-01-26T07:45:51.279Z,1.80
2023-01-26T07:48:53.882Z,1.97
2023-01-26T07:51:57.817Z,2.08
2023-01-26T07:55:00.429Z,2.21
2023-01-26T07:58:03.048Z,2.15
2023-01-26T08:01:10.779Z,1.98
2023-01-26T08:04:13.504Z,2.05
2023-01-26T08:07:17.528Z,1.95
2023-01-26T08:10:20.251Z,2.11
2023-01-26T08:13:34.377Z,1.80
2023-01-26T08:16:37.779Z,1.66
2023-01-26T08:19:40.391Z,1.61
2023-01-26T08:22:44.341Z,1.53
2023-01-26T08:25:47.585Z,1.48
2023-01-26T08:28:50.329Z,1.52
2023-01-26T08:31:53.564Z,1.80
2023-01-26T08:34:56.178Z,1.77
2023-01-26T08:38:00.353Z,1.81
2023-01-26T08:41:03.823Z,1.95
2023-01-26T08:44:06.708Z,1.75
2023-01-26T08:47:09.291Z,1.95
2023-01-26T08:50:12.639Z,1.93
2023-01-26T08:53:16.776Z,2.05
2023-01-26T08:56:19.385Z,2.13
2023-01-26T08:59:22.014Z,1.93
2023-01-26T09:02:24.662Z,2.14
2023-01-26T09:05:27.645Z,1.98
2023-01-26T09:08:32.192Z,1.62
2023-01-26T09:11:34.749Z,1.86
2023-01-26T09:14:37.326Z,2.10
2023-01-26T09:17:39.921Z,2.16
2023-01-26T09:20:42.916Z,2.13
2023-01-26T09:23:46.883Z,2.24
2023-01-26T09:26:49.494Z,1.84
2023-01-26T09:29:52.247Z,2.06
2023-01-26T09:32:58.966Z,1.84
2023-01-26T09:36:05.127Z,2.11
2023-01-26T09:39:09.092Z,1.96
2023-01-26T09:42:28.922Z,2.24
2023-01-26T09:45:37.937Z,2.18
2023-01-26T09:48:44.944Z,2.35
2023-01-26T09:51:52.024Z,2.45
2023-01-26T09:54:59.626Z,2.44
2023-01-26T09:58:05.923Z,2.23
2023-01-26T10:01:18.676Z,2.09
2023-01-26T10:04:33.729Z,2.24
2023-01-26T10:07:36.347Z,2.27
2023-01-26T10:10:45.347Z,2.20
2023-01-26T10:13:55.785Z,2.32
2023-01-26T10:17:00.704Z,2.23
2023-01-26T10:20:07.435Z,2.16
2023-01-26T10:23:16.610Z,2.51
2023-01-26T10:26:22.782Z,2.38
2023-01-26T10:29:25.349Z,2.24
2023-01-26T10:32:28.006Z,2.41
2023-01-26T10:35:30.772Z,2.22
2023-01-26T10:38:41.542Z,2.00
2023-01-26T10:41:58.835Z,2.23
2023-01-26T10:45:03.262Z,2.34
2023-01-26T10:48:16.864Z,2.10
2023-01-26T10:51:24.996Z,2.28
2023-01-26T10:54:28.840Z,2.24
2023-01-26T10:57:33.403Z,2.12
2023-01-26T11:00:37.031Z,2.33
2023-01-26T11:03:40.419Z,2.00
2023-01-26T11:06:43.059Z,2.44
2023-01-26T11:09:47.479Z,2.57
2023-01-26T11:12:52.313Z,2.53
2023-01-26T11:16:04.700Z,2.43
2023-01-26T11:19:14.452Z,2.45
2023-01-26T11:22:20.514Z,2.61
2023-01-26T11:25:27.102Z,2.60
2023-01-26T11:28:44.786Z,2.62
2023-01-26T11:32:00.306Z,2.32
2023-01-26T11:35:14.184Z,2.51
2023-01-26T11:38:33.569Z,2.75
2023-01-26T11:41:49.405Z,2.72
2023-01-26T11:45:09.629Z,2.83
2023-01-26T11:48:22.423Z,2.83
2023-01-26T11:51:38.273Z,2.85
2023-01-26T11:54:59.040Z,2.87
2023-01-26T11:58:20.959Z,3.04
2023-01-26T12:01:29.915Z,3.16
2023-01-26T12:04:36.789Z,3.06
2023-01-26T12:07:55.524Z,3.18
2023-01-26T12:11:22.283Z,2.97
2023-01-26T12:14:30.823Z,3.04
2023-01-26T12:17:44.563Z,3.18
2023-01-26T12:20:52.709Z,3.18
2023-01-26T12:24:02.096Z,3.10
2023-01-26T12:27:14.637Z,3.37
2023-01-26T12:30:27.611Z,3.34
2023-01-26T12:33:32.856Z,3.41
2023-01-26T12:36:45.934Z,3.45
2023-01-26T12:39:58.953Z,3.38
2023-01-26T12:43:15.661Z,3.28
2023-01-26T12:46:18.714Z,3.31
2023-01-26T12:49:27.226Z,3.49
2023-01-26T12:52:35.560Z,3.57
2023-01-26T12:55:45.021Z,3.62
2023-01-26T12:58:51.297Z,3.55
2023-01-26T13:01:54.076Z,3.66
2023-01-26T13:04:59.993Z,3.68
2023-01-26T13:08:32.381Z,3.77
2023-01-26T13:11:50.436Z,3.73
2023-01-26T13:15:07.051Z,3.85
2023-01-26T13:18:17.766Z,3.80
2023-01-26T13:21:29.019Z,3.79
2023-01-26T13:24:46.768Z,3.82
2023-01-26T13:27:57.445Z,3.80
2023-01-26T13:31:04.940Z,3.82
2023-01-26T13:34:10.310Z,3.94
2023-01-26T13:37:20.107Z,3.96
2023-01-26T13:40:29.953Z,4.03
2023-01-26T13:43:38.064Z,3.68
2023-01-26T13:46:44.891Z,3.88
2023-01-26T13:49:49.267Z,3.88
2023-01-26T13:52:53.287Z,4.00
2023-01-26T13:55:59.764Z,3.68
2023-01-26T13:59:11.781Z,3.82
2023-01-26T14:02:23.716Z,3.91
2023-01-26T14:05:26.358Z,3.57
2023-01-26T14:08:32.517Z,3.44
2023-01-26T14:11:35.515Z,3.44
2023-01-26T14:14:38.651Z,3.52
2023-01-26T14:17:49.723Z,3.63
2023-01-26T14:20:59.840Z,3.72
2023-01-26T14:24:03.849Z,3.81
2023-01-26T14:27:07.325Z,3.91
2023-01-26T14:30:23.891Z,3.90
2023-01-26T14:33:26.679Z,3.70
2023-01-26T14:36:36.920Z,3.89
2023-01-26T14:39:42.731Z,3.93
2023-01-26T14:42:45.611Z,3.93
2023-01-26T14:45:52.143Z,3.84
2023-01-26T14:48:59.679Z,3.82
2023-01-26T14:52:02.720Z,4.07
2023-01-26T14:55:09.455Z,3.93
2023-01-26T14:58:16.764Z,3.82
2023-01-26T15:01:24.189Z,3.55
2023-01-26T15:04:37.821Z,3.87
2023-01-26T15:07:43.985Z,3.99
2023-01-26T15:11:16.679Z,3.54
2023-01-26T15:14:33.468Z,3.71
2023-01-26T15:17:41.214Z,3.25
2023-01-26T15:20:45.990Z,3.64
2023-01-26T15:23:52.171Z,3.84
2023-01-26T15:27:05.945Z,3.93
2023-01-26T15:30:17.494Z,3.74
2023-01-26T15:33:46.606Z,3.65
2023-01-26T15:36:51.655Z,3.67
2023-01-26T15:39:54.236Z,3.56
2023-01-26T15:43:12.673Z,3.39
2023-01-26T15:46:15.359Z,3.43
2023-01-26T15:49:19.960Z,3.65
2023-01-26T15:52:25.630Z,3.82
2023-01-26T15:55:30.471Z,3.58
2023-01-26T15:58:36.621Z,3.63
2023-01-26T16:01:39.951Z,3.70
2023-01-26T16:04:42.869Z,3.87
2023-01-26T16:07:46.824Z,4.00
2023-01-26T16:10:49.537Z,4.12
2023-01-26T16:14:02.785Z,4.11
2023-01-26T16:17:12.962Z,4.13
2023-01-26T16:20:15.543Z,4.21
2023-01-26T16:23:20.199Z,4.16
2023-01-26T16:26:22.777Z,4.24
2023-01-26T16:29:26.872Z,4.34
2023-01-26T16:32:30.397Z,4.37
2023-01-26T16:35:33.029Z,4.36
2023-01-26T16:38:35.662Z,4.37
2023-01-26T16:41:38.275Z,4.36
2023-01-26T16:44:42.258Z,4.36
2023-01-26T16:47:44.935Z,4.38
2023-01-26T16:50:47.742Z,4.39
2023-01-26T16:53:50.940Z,4.45
2023-01-26T16:56:53.919Z,4.36
2023-01-26T16:59:57.837Z,4.43
2023-01-26T17:03:00.451Z,4.47
2023-01-26T17:06:03.045Z,4.49
2023-01-26T17:09:05.881Z,4.38
2023-01-26T17:12:10.206Z,4.43
2023-01-26T17:15:14.415Z,4.28
2023-01-26T17:18:17.172Z,4.45
2023-01-26T17:21:21.036Z,4.57
2023-01-26T17:24:23.638Z,4.55
2023-01-26T17:27:26.769Z,4.53
2023-01-26T17:30:30.829Z,4.59
2023-01-26T17:33:33.409Z,4.59
2023-01-26T17:36:35.991Z,4.58
2023-01-26T17:39:38.583Z,4.64
2023-01-26T17:42:41.194Z,4.63
2023-01-26T17:45:45.170Z,4.76
2023-01-26T17:48:50.306Z,4.71
2023-01-26T17:51:53.066Z,4.55
2023-01-26T17:54:55.661Z,4.64
2023-01-26T17:57:58.243Z,4.73
2023-01-26T18:01:02.232Z,4.72
2023-01-26T18:04:04.911Z,4.79
2023-01-26T18:07:07.542Z,4.82
2023-01-26T18:10:11.359Z,4.86
2023-01-26T18:13:14.177Z,4.87
2023-01-26T18:16:20.323Z,4.89
2023-01-26T18:19:23.098Z,4.83
2023-01-26T18:22:25.772Z,4.85
2023-01-26T18:25:28.378Z,4.88
2023-01-26T18:28:30.929Z,4.92
2023-01-26T18:31:36.774Z,4.95
2023-01-26T18:34:41.709Z,4.94
2023-01-26T18:37:44.315Z,4.95
2023-01-26T18:40:46.912Z,4.91
2023-01-26T18:43:51.783Z,4.99
2023-01-26T18:46:55.754Z,4.95
2023-01-26T18:49:58.410Z,4.95
2023-01-26T18:53:01.043Z,4.97
2023-01-26T18:56:05.610Z,4.94
2023-01-26T18:59:10.360Z,4.96
2023-01-26T19:02:15.498Z,4.97
2023-01-26T19:05:18.340Z,4.96
2023-01-26T19:08:23.503Z,4.90
2023-01-26T19:11:28.495Z,4.82
2023-01-26T19:14:32.136Z,4.99
2023-01-26T19:17:36.107Z,5.08
2023-01-26T19:20:38.697Z,5.09
2023-01-26T19:23:42.622Z,5.13
2023-01-26T19:26:45.258Z,5.20
2023-01-26T19:29:47.824Z,5.26
2023-01-26T19:33:09.246Z,5.28
2023-01-26T19:36:11.925Z,5.18
2023-01-26T19:39:14.709Z,5.08
2023-01-26T19:42:17.271Z,5.14
2023-01-26T19:45:19.908Z,4.93
2023-01-26T19:48:25.887Z,4.92
2023-01-26T19:51:29.281Z,4.84
2023-01-26T19:54:31.877Z,4.98
2023-01-26T19:57:34.531Z,5.02
2023-01-26T20:00:37.090Z,5.06
2023-01-26T20:03:41.549Z,4.77
2023-01-26T20:06:44.164Z,4.99
2023-01-26T20:09:46.948Z,5.21
2023-01-26T20:12:49.658Z,5.11
2023-01-26T20:15:52.229Z,5.17
2023-01-26T20:18:56.254Z,5.01
2023-01-26T20:21:59.723Z,5.24
2023-01-26T20:25:02.355Z,5.32
2023-01-26T20:28:05.628Z,5.45
2023-01-26T20:31:10.141Z,5.48
2023-01-26T20:34:14.787Z,5.61
2023-01-26T20:37:17.402Z,5.45
2023-01-26T20:40:20.220Z,5.48
2023-01-26T20:43:22.806Z,5.54
2023-01-26T20:46:25.720Z,5.27
2023-01-26T20:49:29.777Z,5.27
2023-01-26T20:52:32.401Z,5.38
2023-01-26T20:55:35.020Z,5.44
2023-01-26T20:58:37.623Z,5.56
2023-01-26T21:01:40.221Z,5.28
2023-01-26T21:04:44.222Z,5.41
2023-01-26T21:07:46.972Z,5.27
2023-01-26T21:10:50.476Z,5.56
2023-01-26T21:13:53.061Z,5.49
2023-01-26T21:16:55.738Z,5.50
2023-01-26T21:19:59.737Z,5.51
2023-01-26T21:23:02.341Z,5.38
2023-01-26T21:26:06.766Z,5.43
2023-01-26T21:29:14.320Z,5.63
2023-01-26T21:32:16.931Z,5.62
2023-01-26T21:35:20.924Z,5.55
2023-01-26T21:38:23.547Z,5.65
2023-01-26T21:41:46.784Z,5.43
2023-01-26T21:45:07.068Z,5.56
2023-01-26T21:48:27.390Z,5.53
2023-01-26T21:51:48.767Z,5.58
2023-01-26T21:54:51.338Z,5.67
2023-01-26T21:58:11.679Z,5.42
2023-01-26T22:01:14.280Z,5.45
2023-01-26T22:04:20.000Z,5.44
2023-01-26T22:07:23.985Z,5.64
2023-01-26T22:10:26.562Z,5.70
2023-01-26T22:13:29.589Z,5.53
2023-01-26T22:16:33.254Z,5.64
2023-01-26T22:19:35.889Z,5.67
2023-01-26T22:22:39.835Z,5.64
2023-01-26T22:25:42.851Z,5.61
2023-01-26T22:28:50.008Z,5.61
2023-01-26T22:31:52.896Z,5.78
2023-01-26T22:34:55.485Z,5.64
2023-01-26T22:37:59.894Z,5.80
2023-01-26T22:41:02.722Z,5.33
2023-01-26T22:44:05.371Z,5.58
2023-01-26T22:47:08.084Z,5.65
2023-01-26T22:50:12.460Z,5.32
2023-01-26T22:53:16.555Z,5.42
2023-01-26T22:56:20.084Z,5.34
2023-01-26T22:59:22.657Z,5.59
2023-01-26T23:02:25.327Z,5.58
2023-01-26T23:05:27.931Z,5.72
2023-01-26T23:08:32.678Z,5.65
2023-01-26T23:11:35.676Z,5.63
2023-01-26T23:14:38.442Z,5.53
2023-01-26T23:17:41.079Z,5.50
2023-01-26T23:20:43.708Z,5.48
2023-01-26T23:23:47.737Z,5.37
2023-01-26T23:26:50.335Z,5.45
2023-01-26T23:29:52.931Z,5.53
2023-01-26T23:32:55.541Z,5.45
2023-01-26T23:35:58.534Z,5.38
2023-01-26T23:39:02.457Z,5.27
2023-01-26T23:42:05.062Z,5.54
2023-01-26T23:45:08.789Z,5.74
2023-01-26T23:48:11.421Z,5.64
2023-01-26T23:51:14.204Z,5.34
2023-01-26T23:54:18.449Z,5.33
2023-01-26T23:57:21.028Z,5.20
